createdAt,value
2016-08-18T00:00:32.309Z,1013.81
2016-08-18T00:01:32.326Z,1013.85
2016-08-18T00:02:32.347Z,1013.86
2016-08-18T00:03:32.363Z,1013.81
2016-08-18T00:04:32.387Z,1013.82
2016-08-18T00:05:32.407Z,1013.88
2016-08-18T00:06:32.425Z,1013.87
2016-08-18T00:07:32.440Z,1013.88
2016-08-18T00:08:32.465Z,1013.86
2016-08-18T00:09:32.484Z,1013.86
2016-08-18T00:10:32.506Z,1013.84
2016-08-18T00:11:32.522Z,1013.84
2016-08-18T00:12:32.545Z,1013.84
2016-08-18T00:13:32.563Z,1013.84
2016-08-18T00:14:32.577Z,1013.82
2016-08-18T00:15:32.605Z,1013.8
2016-08-18T00:16:32.631Z,1013.75
2016-08-18T00:17:32.646Z,1013.75
2016-08-18T00:18:32.664Z,1013.75
2016-08-18T00:19:32.684Z,1013.74
2016-08-18T00:20:32.700Z,1013.72
2016-08-18T00:21:32.717Z,1013.7
2016-08-18T00:22:32.734Z,1013.75
2016-08-18T00:23:32.758Z,1013.71
2016-08-18T00:24:32.772Z,1013.72
2016-08-18T00:25:32.795Z,1013.69
2016-08-18T00:26:32.825Z,1013.7
2016-08-18T00:27:32.846Z,1013.7
2016-08-18T00:28:32.857Z,1013.76
2016-08-18T00:29:32.884Z,1013.75
2016-08-18T00:30:32.910Z,1013.72
2016-08-18T00:31:32.910Z,1013.74
2016-08-18T00:32:32.938Z,1013.72
2016-08-18T00:33:32.956Z,1013.75
2016-08-18T00:34:32.972Z,1013.76
2016-08-18T00:35:32.994Z,1013.78
2016-08-18T00:36:33.006Z,1013.81
2016-08-18T00:37:33.034Z,1013.77
2016-08-18T00:38:33.050Z,1013.73
2016-08-18T00:39:33.073Z,1013.74
2016-08-18T00:40:33.091Z,1013.75
2016-08-18T00:41:33.114Z,1013.74
2016-08-18T00:42:33.232Z,1013.75
2016-08-18T00:43:33.153Z,1013.73
2016-08-18T00:44:33.171Z,1013.68
2016-08-18T00:45:33.183Z,1013.68
2016-08-18T00:46:33.214Z,1013.67
2016-08-18T00:47:33.225Z,1013.65
2016-08-18T00:48:33.243Z,1013.63
2016-08-18T00:49:33.273Z,1013.63
2016-08-18T00:50:33.293Z,1013.62
2016-08-18T00:51:33.301Z,1013.62
2016-08-18T00:52:33.325Z,1013.66
2016-08-18T00:53:33.345Z,1013.65
2016-08-18T00:54:33.364Z,1013.61
2016-08-18T00:55:33.484Z,1013.67
2016-08-18T00:56:33.397Z,1013.64
2016-08-18T00:57:33.421Z,1013.6
2016-08-18T00:58:33.447Z,1013.57
2016-08-18T00:59:33.464Z,1013.54
2016-08-18T01:00:33.478Z,1013.57
2016-08-18T01:01:33.512Z,1013.56
2016-08-18T01:02:33.525Z,1013.56
2016-08-18T01:03:33.537Z,1013.56
2016-08-18T01:04:33.560Z,1013.57
2016-08-18T01:05:33.573Z,1013.55
2016-08-18T01:06:33.605Z,1013.55
2016-08-18T01:07:33.609Z,1013.58
2016-08-18T01:08:33.734Z,1013.56
2016-08-18T01:09:33.654Z,1013.55
2016-08-18T01:10:33.683Z,1013.52
2016-08-18T01:11:33.691Z,1013.51
2016-08-18T01:12:33.714Z,1013.51
2016-08-18T01:13:33.733Z,1013.53
2016-08-18T01:14:33.744Z,1013.46
2016-08-18T01:15:33.774Z,1013.44
2016-08-18T01:16:33.788Z,1013.42
2016-08-18T01:17:33.813Z,1013.38
2016-08-18T01:18:33.822Z,1013.4
2016-08-18T01:19:33.843Z,1013.37
2016-08-18T01:20:33.868Z,1013.38
2016-08-18T01:21:33.883Z,1013.38
2016-08-18T01:22:33.904Z,1013.37
2016-08-18T01:23:33.919Z,1013.35
2016-08-18T01:24:33.948Z,1013.34
2016-08-18T01:25:33.961Z,1013.32
2016-08-18T01:26:33.983Z,1013.34
2016-08-18T01:27:33.996Z,1013.35
2016-08-18T01:28:34.023Z,1013.31
2016-08-18T01:29:34.045Z,1013.28
2016-08-18T01:30:34.060Z,1013.31
2016-08-18T01:31:34.075Z,1013.3
2016-08-18T01:32:34.092Z,1013.29
2016-08-18T01:33:34.119Z,1013.28
2016-08-18T01:34:34.136Z,1013.27
2016-08-18T01:35:34.150Z,1013.27
2016-08-18T01:36:34.173Z,1013.26
2016-08-18T01:37:34.194Z,1013.25
2016-08-18T01:38:34.209Z,1013.22
2016-08-18T01:39:34.226Z,1013.2
2016-08-18T01:40:34.247Z,1013.21
2016-08-18T01:41:34.267Z,1013.2
2016-08-18T01:42:34.296Z,1013.19
2016-08-18T01:43:34.307Z,1013.15
2016-08-18T01:44:34.325Z,1013.15
2016-08-18T01:45:34.348Z,1013.14
2016-08-18T01:46:34.367Z,1013.12
2016-08-18T01:47:34.381Z,1013.14
2016-08-18T01:48:34.403Z,1013.11
2016-08-18T01:49:34.422Z,1013.11
2016-08-18T01:50:34.435Z,1013.09
2016-08-18T01:51:34.463Z,1013.1
2016-08-18T01:52:34.483Z,1013.13
2016-08-18T01:53:34.504Z,1013.09
2016-08-18T01:54:34.513Z,1013.11
2016-08-18T01:55:34.536Z,1013.16
2016-08-18T01:56:34.556Z,1013.1
2016-08-18T01:57:34.585Z,1013.04
2016-08-18T01:58:34.590Z,1013.08
2016-08-18T01:59:34.616Z,1013.07
2016-08-18T02:00:34.632Z,1013.07
2016-08-18T02:01:34.650Z,1013.07
2016-08-18T02:02:34.677Z,1013.1
2016-08-18T02:03:34.690Z,1013.08
2016-08-18T02:04:34.706Z,1013.07
2016-08-18T02:05:34.725Z,1013.08
2016-08-18T02:06:34.750Z,1012.99
2016-08-18T02:07:34.762Z,1013
2016-08-18T02:08:35.584Z,1012.96
2016-08-18T02:09:34.810Z,1012.93
2016-08-18T02:10:34.825Z,1012.95
2016-08-18T02:11:34.845Z,1012.93
2016-08-18T02:12:34.858Z,1012.94
2016-08-18T02:13:34.874Z,1012.94
2016-08-18T02:14:34.891Z,1012.94
2016-08-18T02:15:34.914Z,1012.91
2016-08-18T02:16:34.932Z,1012.9
2016-08-18T02:17:34.948Z,1012.87
2016-08-18T02:18:34.974Z,1012.9
2016-08-18T02:19:34.990Z,1012.84
2016-08-18T02:20:35.013Z,1012.86
2016-08-18T02:21:35.030Z,1012.86
2016-08-18T02:22:35.044Z,1012.87
2016-08-18T02:23:35.069Z,1012.82
2016-08-18T02:24:35.185Z,1012.78
2016-08-18T02:25:35.109Z,1012.76
2016-08-18T02:26:35.118Z,1012.77
2016-08-18T02:27:35.142Z,1012.76
2016-08-18T02:28:35.159Z,1012.74
2016-08-18T02:29:35.186Z,1012.74
2016-08-18T02:30:35.204Z,1012.76
2016-08-18T02:31:35.237Z,1012.77
2016-08-18T02:32:35.239Z,1012.74
2016-08-18T02:33:35.255Z,1012.75
2016-08-18T02:34:35.275Z,1012.74
2016-08-18T02:35:35.288Z,1012.73
2016-08-18T02:36:35.308Z,1012.78
2016-08-18T02:37:35.423Z,1012.72
2016-08-18T02:38:35.343Z,1012.7
2016-08-18T02:39:35.419Z,1012.69
2016-08-18T02:40:35.385Z,1012.68
2016-08-18T02:41:35.403Z,1012.65
2016-08-18T02:42:35.418Z,1012.65
2016-08-18T02:43:35.436Z,1012.65
2016-08-18T02:44:35.456Z,1012.62
2016-08-18T02:45:35.477Z,1012.63
2016-08-18T02:46:35.497Z,1012.61
2016-08-18T02:47:35.515Z,1012.62
2016-08-18T02:48:35.545Z,1012.59
2016-08-18T02:49:35.552Z,1012.57
2016-08-18T02:50:35.626Z,1012.64
2016-08-18T02:51:35.595Z,1012.62
2016-08-18T02:52:35.615Z,1012.63
2016-08-18T02:53:35.624Z,1012.61
2016-08-18T02:54:35.644Z,1012.6
2016-08-18T02:55:35.663Z,1012.62
2016-08-18T02:56:35.689Z,1012.56
2016-08-18T02:57:35.705Z,1012.59
2016-08-18T02:58:35.721Z,1012.56
2016-08-18T02:59:35.737Z,1012.54
2016-08-18T03:00:35.766Z,1012.53
2016-08-18T03:01:35.796Z,1012.54
2016-08-18T03:02:35.796Z,1012.58
2016-08-18T03:03:35.814Z,1012.55
2016-08-18T03:04:35.828Z,1012.5
2016-08-18T03:05:35.848Z,1012.53
2016-08-18T03:06:35.875Z,1012.52
2016-08-18T03:07:35.891Z,1012.51
2016-08-18T03:08:35.904Z,1012.49
2016-08-18T03:09:35.921Z,1012.53
2016-08-18T03:10:35.945Z,1012.54
2016-08-18T03:11:35.961Z,1012.51
2016-08-18T03:12:35.986Z,1012.53
2016-08-18T03:13:35.993Z,1012.52
2016-08-18T03:14:36.025Z,1012.5
2016-08-18T03:15:36.034Z,1012.49
2016-08-18T03:16:36.055Z,1012.48
2016-08-18T03:17:36.073Z,1012.46
2016-08-18T03:18:36.094Z,1012.45
2016-08-18T03:19:36.114Z,1012.44
2016-08-18T03:20:36.124Z,1012.45
2016-08-18T03:21:36.144Z,1012.43
2016-08-18T03:22:36.163Z,1012.43
2016-08-18T03:23:36.185Z,1012.46
2016-08-18T03:24:36.199Z,1012.47
2016-08-18T03:25:36.219Z,1012.51
2016-08-18T03:26:36.242Z,1012.5
2016-08-18T03:27:36.252Z,1012.53
2016-08-18T03:28:36.274Z,1012.54
2016-08-18T03:29:36.293Z,1012.52
2016-08-18T03:30:36.316Z,1012.5
2016-08-18T03:31:36.341Z,1012.48
2016-08-18T03:32:36.357Z,1012.5
2016-08-18T03:33:36.375Z,1012.49
2016-08-18T03:34:36.393Z,1012.5
2016-08-18T03:35:36.403Z,1012.52
2016-08-18T03:36:36.423Z,1012.49
2016-08-18T03:37:36.443Z,1012.5
2016-08-18T03:38:36.459Z,1012.52
2016-08-18T03:39:36.485Z,1012.49
2016-08-18T03:40:36.494Z,1012.47
2016-08-18T03:41:36.523Z,1012.47
2016-08-18T03:42:36.533Z,1012.45
2016-08-18T03:43:36.555Z,1012.45
2016-08-18T03:44:36.575Z,1012.44
2016-08-18T03:45:36.590Z,1012.41
2016-08-18T03:46:36.610Z,1012.4
2016-08-18T03:47:36.624Z,1012.41
2016-08-18T03:48:36.646Z,1012.39
2016-08-18T03:49:36.664Z,1012.39
2016-08-18T03:50:36.685Z,1012.39
2016-08-18T03:51:36.705Z,1012.42
2016-08-18T03:52:36.712Z,1012.42
2016-08-18T03:53:36.838Z,1012.41
2016-08-18T03:54:36.750Z,1012.42
2016-08-18T03:55:36.776Z,1012.39
2016-08-18T03:56:36.793Z,1012.39
2016-08-18T03:57:36.814Z,1012.36
2016-08-18T03:58:36.827Z,1012.36
2016-08-18T03:59:36.845Z,1012.38
2016-08-18T04:00:36.866Z,1012.35
2016-08-18T04:01:36.885Z,1012.36
2016-08-18T04:02:36.904Z,1012.37
2016-08-18T04:03:36.939Z,1012.37
2016-08-18T04:04:36.946Z,1012.39
2016-08-18T04:05:36.956Z,1012.41
2016-08-18T04:06:36.973Z,1012.41
2016-08-18T04:07:36.995Z,1012.42
2016-08-18T04:08:37.810Z,1012.42
2016-08-18T04:09:37.030Z,1012.43
2016-08-18T04:10:37.049Z,1012.44
2016-08-18T04:11:37.065Z,1012.42
2016-08-18T04:12:37.085Z,1012.42
2016-08-18T04:13:37.106Z,1012.38
2016-08-18T04:14:37.118Z,1012.37
2016-08-18T04:15:37.138Z,1012.39
2016-08-18T04:16:37.153Z,1012.38
2016-08-18T04:17:37.171Z,1012.39
2016-08-18T04:18:37.192Z,1012.38
2016-08-18T04:19:37.216Z,1012.4
2016-08-18T04:20:37.233Z,1012.42
2016-08-18T04:21:37.254Z,1012.39
2016-08-18T04:22:37.275Z,1012.39
2016-08-18T04:23:37.334Z,1012.38
2016-08-18T04:24:37.302Z,1012.36
2016-08-18T04:25:37.323Z,1012.37
2016-08-18T04:26:37.338Z,1012.4
2016-08-18T04:27:37.369Z,1012.39
2016-08-18T04:28:37.378Z,1012.37
2016-08-18T04:29:37.395Z,1012.41
2016-08-18T04:30:37.415Z,1012.39
2016-08-18T04:31:37.431Z,1012.37
2016-08-18T04:32:37.448Z,1012.35
2016-08-18T04:33:37.475Z,1012.31
2016-08-18T04:34:37.646Z,1012.36
2016-08-18T04:35:37.503Z,1012.31
2016-08-18T04:36:37.577Z,1012.31
2016-08-18T04:37:37.546Z,1012.27
2016-08-18T04:38:37.570Z,1012.27
2016-08-18T04:39:37.583Z,1012.24
2016-08-18T04:40:37.597Z,1012.28
2016-08-18T04:41:37.613Z,1012.27
2016-08-18T04:42:37.633Z,1012.3
2016-08-18T04:43:37.814Z,1012.28
2016-08-18T04:44:37.833Z,1012.3
2016-08-18T04:45:37.893Z,1012.3
2016-08-18T04:46:37.826Z,1012.3
2016-08-18T04:47:37.935Z,1012.28
2016-08-18T04:48:37.853Z,1012.26
2016-08-18T04:49:37.977Z,1012.22
2016-08-18T04:50:37.887Z,1012.27
2016-08-18T04:51:38.206Z,1012.22
2016-08-18T04:52:37.876Z,1012.21
2016-08-18T04:53:37.942Z,1012.24
2016-08-18T04:54:37.863Z,1012.2
2016-08-18T04:55:37.883Z,1012.22
2016-08-18T04:56:37.901Z,1012.2
2016-08-18T04:57:37.921Z,1012.24
2016-08-18T04:58:37.943Z,1012.23
2016-08-18T04:59:37.964Z,1012.18
2016-08-18T05:00:37.972Z,1012.2
2016-08-18T05:01:38.004Z,1012.21
2016-08-18T05:02:38.017Z,1012.17
2016-08-18T05:03:38.036Z,1012.19
2016-08-18T05:04:38.051Z,1012.19
2016-08-18T05:05:38.072Z,1012.18
2016-08-18T05:06:38.094Z,1012.17
2016-08-18T05:07:38.114Z,1012.16
2016-08-18T05:08:38.176Z,1012.18
2016-08-18T05:09:38.150Z,1012.18
2016-08-18T05:10:38.171Z,1012.18
2016-08-18T05:11:38.197Z,1012.18
2016-08-18T05:12:38.211Z,1012.16
2016-08-18T05:13:38.237Z,1012.16
2016-08-18T05:14:38.252Z,1012.13
2016-08-18T05:15:38.268Z,1012.14
2016-08-18T05:16:38.292Z,1012.15
2016-08-18T05:17:38.304Z,1012.13
2016-08-18T05:18:38.330Z,1012.15
2016-08-18T05:19:38.352Z,1012.15
2016-08-18T05:20:38.371Z,1012.15
2016-08-18T05:21:38.390Z,1012.15
2016-08-18T05:22:38.407Z,1012.16
2016-08-18T05:23:38.431Z,1012.18
2016-08-18T05:24:38.441Z,1012.2
2016-08-18T05:25:38.465Z,1012.19
2016-08-18T05:26:38.482Z,1012.17
2016-08-18T05:27:38.511Z,1012.16
2016-08-18T05:28:38.522Z,1012.17
2016-08-18T05:29:38.552Z,1012.17
2016-08-18T05:30:38.569Z,1012.17
2016-08-18T05:31:38.583Z,1012.22
2016-08-18T05:32:38.611Z,1012.15
2016-08-18T05:33:38.632Z,1012.19
2016-08-18T05:34:38.656Z,1012.21
2016-08-18T05:35:38.670Z,1012.2
2016-08-18T05:36:38.692Z,1012.23
2016-08-18T05:37:38.712Z,1012.22
2016-08-18T05:38:38.741Z,1012.25
2016-08-18T05:39:38.751Z,1012.23
2016-08-18T05:40:38.782Z,1012.19
2016-08-18T05:41:38.804Z,1012.23
2016-08-18T05:42:38.827Z,1012.21
2016-08-18T05:43:38.842Z,1012.23
2016-08-18T05:44:38.874Z,1012.2
2016-08-18T05:45:38.890Z,1012.25
2016-08-18T05:46:38.911Z,1012.25
2016-08-18T05:47:38.940Z,1012.24
2016-08-18T05:48:39.031Z,1012.24
2016-08-18T05:49:38.987Z,1012.25
2016-08-18T05:50:39.014Z,1012.19
2016-08-18T05:51:39.031Z,1012.17
2016-08-18T05:52:39.063Z,1012.21
2016-08-18T05:53:39.085Z,1012.24
2016-08-18T05:54:39.110Z,1012.25
2016-08-18T05:55:39.131Z,1012.21
2016-08-18T05:56:39.160Z,1012.27
2016-08-18T05:57:39.182Z,1012.23
2016-08-18T05:58:39.213Z,1012.28
2016-08-18T05:59:39.242Z,1012.3
2016-08-18T06:00:39.263Z,1012.3
2016-08-18T06:01:39.337Z,1012.3
2016-08-18T06:02:39.312Z,1012.32
2016-08-18T06:03:39.350Z,1012.34
2016-08-18T06:04:39.375Z,1012.35
2016-08-18T06:05:39.403Z,1012.34
2016-08-18T06:06:39.422Z,1012.38
2016-08-18T06:07:39.452Z,1012.32
2016-08-18T06:08:39.492Z,1012.38
2016-08-18T06:09:39.502Z,1012.4
2016-08-18T06:10:39.541Z,1012.43
2016-08-18T06:11:39.563Z,1012.43
2016-08-18T06:12:39.594Z,1012.44
2016-08-18T06:13:39.622Z,1012.41
2016-08-18T06:14:39.655Z,1012.45
2016-08-18T06:15:39.677Z,1012.49
2016-08-18T06:16:39.702Z,1012.45
2016-08-18T06:17:39.732Z,1012.47
2016-08-18T06:18:39.764Z,1012.41
2016-08-18T06:19:39.790Z,1012.44
2016-08-18T06:20:39.824Z,1012.47
2016-08-18T06:21:39.849Z,1012.52
2016-08-18T06:22:39.880Z,1012.5
2016-08-18T06:23:39.905Z,1012.51
2016-08-18T06:24:39.936Z,1012.54
2016-08-18T06:25:39.963Z,1012.54
2016-08-18T06:26:39.992Z,1012.56
2016-08-18T06:27:40.023Z,1012.57
2016-08-18T06:28:40.053Z,1012.55
2016-08-18T06:29:40.080Z,1012.57
2016-08-18T06:30:40.113Z,1012.57
2016-08-18T06:31:40.143Z,1012.55
2016-08-18T06:32:40.176Z,1012.61
2016-08-18T06:33:40.201Z,1012.59
2016-08-18T06:34:40.232Z,1012.59
2016-08-18T06:35:40.264Z,1012.61
2016-08-18T06:36:40.300Z,1012.59
2016-08-18T06:37:40.323Z,1012.58
2016-08-18T06:38:40.356Z,1012.6
2016-08-18T06:39:40.386Z,1012.6
2016-08-18T06:40:40.422Z,1012.55
2016-08-18T06:41:40.448Z,1012.59
2016-08-18T06:42:40.484Z,1012.57
2016-08-18T06:43:40.512Z,1012.62
2016-08-18T06:44:40.548Z,1012.64
2016-08-18T06:45:40.582Z,1012.63
2016-08-18T06:46:40.622Z,1012.64
2016-08-18T06:47:40.636Z,1012.64
2016-08-18T06:48:40.679Z,1012.61
2016-08-18T06:49:40.705Z,1012.62
2016-08-18T06:50:40.732Z,1012.6
2016-08-18T06:51:40.770Z,1012.63
2016-08-18T06:52:40.806Z,1012.65
2016-08-18T06:53:40.835Z,1012.64
2016-08-18T06:54:40.862Z,1012.61
2016-08-18T06:55:40.903Z,1012.62
2016-08-18T06:56:40.932Z,1012.65
2016-08-18T06:57:40.963Z,1012.64
2016-08-18T06:58:40.992Z,1012.65
2016-08-18T06:59:41.032Z,1012.66
2016-08-18T07:00:41.065Z,1012.68
2016-08-18T07:01:41.098Z,1012.69
2016-08-18T07:02:41.129Z,1012.68
2016-08-18T07:03:41.162Z,1012.68
2016-08-18T07:04:41.194Z,1012.69
2016-08-18T07:05:41.228Z,1012.66
2016-08-18T07:06:41.261Z,1012.66
2016-08-18T07:07:41.294Z,1012.65
2016-08-18T07:08:41.382Z,1012.68
2016-08-18T07:09:41.357Z,1012.68
2016-08-18T07:10:41.395Z,1012.64
2016-08-18T07:11:41.534Z,1012.67
2016-08-18T07:12:41.465Z,1012.65
2016-08-18T07:13:41.492Z,1012.64
2016-08-18T07:14:41.524Z,1012.63
2016-08-18T07:15:41.555Z,1012.64
2016-08-18T07:16:41.591Z,1012.66
2016-08-18T07:17:41.640Z,1012.67
2016-08-18T07:18:41.657Z,1012.69
2016-08-18T07:19:41.690Z,1012.69
2016-08-18T07:20:41.722Z,1012.7
2016-08-18T07:21:41.753Z,1012.71
2016-08-18T07:22:41.791Z,1012.75
2016-08-18T07:23:41.834Z,1012.73
2016-08-18T07:24:41.861Z,1012.74
2016-08-18T07:25:41.893Z,1012.73
2016-08-18T07:26:41.939Z,1012.81
2016-08-18T07:27:41.962Z,1012.77
2016-08-18T07:28:41.991Z,1012.8
2016-08-18T07:29:42.034Z,1012.75
2016-08-18T07:30:42.071Z,1012.83
2016-08-18T07:31:42.090Z,1012.79
2016-08-18T07:32:42.130Z,1012.83
2016-08-18T07:33:42.159Z,1012.81
2016-08-18T07:34:42.193Z,1012.79
2016-08-18T07:35:42.227Z,1012.77
2016-08-18T07:36:42.266Z,1012.78
2016-08-18T07:37:42.294Z,1012.76
2016-08-18T07:38:42.327Z,1012.77
2016-08-18T07:39:42.359Z,1012.77
2016-08-18T07:40:42.402Z,1012.68
2016-08-18T07:41:42.428Z,1012.73
2016-08-18T07:42:42.464Z,1012.71
2016-08-18T07:43:42.494Z,1012.69
2016-08-18T07:44:42.522Z,1012.64
2016-08-18T07:45:42.561Z,1012.66
2016-08-18T07:46:42.594Z,1012.69
2016-08-18T07:47:42.622Z,1012.64
2016-08-18T07:48:42.666Z,1012.68
2016-08-18T07:49:42.692Z,1012.64
2016-08-18T07:50:42.723Z,1012.69
2016-08-18T07:51:42.752Z,1012.65
2016-08-18T07:52:42.789Z,1012.64
2016-08-18T07:53:42.822Z,1012.63
2016-08-18T07:54:42.859Z,1012.63
2016-08-18T07:55:42.894Z,1012.61
2016-08-18T07:56:42.918Z,1012.58
2016-08-18T07:57:42.948Z,1012.57
2016-08-18T07:58:42.984Z,1012.42
2016-08-18T07:59:43.014Z,1012.51
2016-08-18T08:00:43.042Z,1012.52
2016-08-18T08:01:43.081Z,1012.45
2016-08-18T08:02:43.113Z,1012.45
2016-08-18T08:03:43.144Z,1012.39
2016-08-18T08:04:43.177Z,1012.29
2016-08-18T08:05:43.204Z,1012.33
2016-08-18T08:06:43.232Z,1012.36
2016-08-18T08:07:43.272Z,1012.31
2016-08-18T08:08:43.345Z,1012.25
2016-08-18T08:09:43.323Z,1012.27
2016-08-18T08:10:43.354Z,1012.26
2016-08-18T08:11:43.384Z,1012.25
2016-08-18T08:12:43.423Z,1012.26
2016-08-18T08:13:43.447Z,1012.29
2016-08-18T08:14:43.481Z,1012.24
2016-08-18T08:15:43.601Z,1012.26
2016-08-18T08:16:43.522Z,1012.29
2016-08-18T08:17:43.554Z,1012.27
2016-08-18T08:18:43.583Z,1012.29
2016-08-18T08:19:43.630Z,1012.25
2016-08-18T08:20:43.634Z,1012.25
2016-08-18T08:21:43.660Z,1012.22
2016-08-18T08:22:43.694Z,1012.22
2016-08-18T08:23:43.713Z,1012.18
2016-08-18T08:24:43.744Z,1012.17
2016-08-18T08:25:43.764Z,1012.16
2016-08-18T08:26:43.791Z,1012.17
2016-08-18T08:27:43.834Z,1012.14
2016-08-18T08:28:43.855Z,1012.2
2016-08-18T08:29:43.878Z,1012.16
2016-08-18T08:30:43.900Z,1012.16
2016-08-18T08:31:43.925Z,1012.16
2016-08-18T08:32:43.952Z,1012.21
2016-08-18T08:33:43.973Z,1012.18
2016-08-18T08:34:44.003Z,1012.15
2016-08-18T08:35:44.054Z,1012.17
2016-08-18T08:36:44.055Z,1012.19
2016-08-18T08:37:44.089Z,1012.24
2016-08-18T08:38:44.103Z,1012.2
2016-08-18T08:39:44.133Z,1012.2
2016-08-18T08:40:44.161Z,1012.2
2016-08-18T08:41:44.186Z,1012.17
2016-08-18T08:42:44.203Z,1012.21
2016-08-18T08:43:44.332Z,1012.24
2016-08-18T08:44:44.259Z,1012.24
2016-08-18T08:45:44.284Z,1012.24
2016-08-18T08:46:44.312Z,1012.23
2016-08-18T08:47:44.333Z,1012.21
2016-08-18T08:48:44.355Z,1012.24
2016-08-18T08:49:44.383Z,1012.21
2016-08-18T08:50:44.412Z,1012.23
2016-08-18T08:51:44.431Z,1012.2
2016-08-18T08:52:44.473Z,1012.19
2016-08-18T08:53:44.484Z,1012.25
2016-08-18T08:54:44.515Z,1012.26
2016-08-18T08:55:44.529Z,1012.23
2016-08-18T08:56:44.565Z,1012.2
2016-08-18T08:57:44.583Z,1012.23
2016-08-18T08:58:44.610Z,1012.26
2016-08-18T08:59:44.633Z,1012.19
2016-08-18T09:00:44.659Z,1012.2
2016-08-18T09:01:44.680Z,1012.14
2016-08-18T09:02:44.708Z,1012.12
2016-08-18T09:03:44.727Z,1012.15
2016-08-18T09:04:44.759Z,1012.12
2016-08-18T09:05:44.780Z,1012.12
2016-08-18T09:06:44.821Z,1012.16
2016-08-18T09:07:44.828Z,1012.19
2016-08-18T09:08:45.003Z,1012.19
2016-08-18T09:09:44.876Z,1012.14
2016-08-18T09:10:44.908Z,1012.19
2016-08-18T09:11:44.923Z,1012.22
2016-08-18T09:12:44.958Z,1012.17
2016-08-18T09:13:44.983Z,1012.19
2016-08-18T09:14:45.005Z,1012.17
2016-08-18T09:15:45.030Z,1012.13
2016-08-18T09:16:45.049Z,1012.12
2016-08-18T09:17:45.080Z,1012.17
2016-08-18T09:18:45.101Z,1012.15
2016-08-18T09:19:45.123Z,1012.19
2016-08-18T09:20:45.154Z,1012.2
2016-08-18T09:21:45.226Z,1012.17
2016-08-18T09:22:45.196Z,1012.2
2016-08-18T09:23:45.235Z,1012.18
2016-08-18T09:24:45.248Z,1012.18
2016-08-18T09:25:45.276Z,1012.14
2016-08-18T09:26:45.497Z,1012.13
2016-08-18T09:27:45.322Z,1012.13
2016-08-18T09:28:45.352Z,1012.1
2016-08-18T09:29:45.370Z,1012.11
2016-08-18T09:30:45.465Z,1012.07
2016-08-18T09:31:45.444Z,1012.08
2016-08-18T09:32:45.454Z,1012.06
2016-08-18T09:33:45.466Z,1012.1
2016-08-18T09:34:45.508Z,1012.09
2016-08-18T09:35:45.936Z,1012.08
2016-08-18T09:36:45.542Z,1012.08
2016-08-18T09:37:45.563Z,1012.1
2016-08-18T09:38:45.603Z,1012.05
2016-08-18T09:39:45.612Z,1012.04
2016-08-18T09:40:45.642Z,1012.05
2016-08-18T09:41:45.669Z,1012.04
2016-08-18T09:42:45.694Z,1012.05
2016-08-18T09:43:45.718Z,1012.04
2016-08-18T09:44:45.745Z,1012
2016-08-18T09:45:45.763Z,1012
2016-08-18T09:46:45.806Z,1012.05
2016-08-18T09:47:45.821Z,1012.01
2016-08-18T09:48:45.846Z,1012
2016-08-18T09:49:45.867Z,1011.98
2016-08-18T09:50:45.886Z,1011.98
2016-08-18T09:51:45.922Z,1011.99
2016-08-18T09:52:45.945Z,1011.96
2016-08-18T09:53:45.962Z,1011.95
2016-08-18T09:54:46.006Z,1011.97
2016-08-18T09:55:46.015Z,1011.96
2016-08-18T09:56:46.043Z,1011.91
2016-08-18T09:57:46.063Z,1011.91
2016-08-18T09:58:46.094Z,1011.9
2016-08-18T09:59:46.115Z,1011.9
2016-08-18T10:00:46.136Z,1011.89
2016-08-18T10:01:46.167Z,1011.86
2016-08-18T10:02:46.190Z,1011.93
2016-08-18T10:03:46.213Z,1011.94
2016-08-18T10:04:46.554Z,1011.9
2016-08-18T10:05:46.261Z,1011.86
2016-08-18T10:06:46.284Z,1011.88
2016-08-18T10:07:47.404Z,1011.86
2016-08-18T10:08:46.394Z,1011.86
2016-08-18T10:09:46.364Z,1011.84
2016-08-18T10:10:46.382Z,1011.82
2016-08-18T10:11:46.415Z,1011.82
2016-08-18T10:12:46.444Z,1011.83
2016-08-18T10:13:46.471Z,1011.84
2016-08-18T10:14:46.505Z,1011.82
2016-08-18T10:15:46.516Z,1011.83
2016-08-18T10:16:46.536Z,1011.83
2016-08-18T10:17:46.562Z,1011.81
2016-08-18T10:18:46.585Z,1011.83
2016-08-18T10:19:46.612Z,1011.8
2016-08-18T10:20:46.634Z,1011.84
2016-08-18T10:21:46.666Z,1011.8
2016-08-18T10:22:46.705Z,1011.83
2016-08-18T10:23:46.715Z,1011.83
2016-08-18T10:24:46.744Z,1011.77
2016-08-18T10:25:46.760Z,1011.8
2016-08-18T10:26:46.784Z,1011.8
2016-08-18T10:27:46.814Z,1011.78
2016-08-18T10:28:46.836Z,1011.78
2016-08-18T10:29:46.863Z,1011.82
2016-08-18T10:30:46.889Z,1011.86
2016-08-18T10:31:46.914Z,1011.84
2016-08-18T10:32:46.944Z,1011.82
2016-08-18T10:33:46.979Z,1011.82
2016-08-18T10:34:46.994Z,1011.8
2016-08-18T10:35:47.077Z,1011.8
2016-08-18T10:36:47.049Z,1011.77
2016-08-18T10:37:47.075Z,1011.76
2016-08-18T10:38:47.103Z,1011.74
2016-08-18T10:39:47.134Z,1011.75
2016-08-18T10:40:47.145Z,1011.71
2016-08-18T10:41:47.172Z,1011.67
2016-08-18T10:42:47.196Z,1011.7
2016-08-18T10:43:47.221Z,1011.69
2016-08-18T10:44:47.254Z,1011.67
2016-08-18T10:45:47.272Z,1011.65
2016-08-18T10:46:47.300Z,1011.7
2016-08-18T10:47:47.329Z,1011.69
2016-08-18T10:48:47.353Z,1011.69
2016-08-18T10:49:47.385Z,1011.7
2016-08-18T10:50:47.404Z,1011.67
2016-08-18T10:51:47.429Z,1011.65
2016-08-18T10:52:47.453Z,1011.66
2016-08-18T10:53:47.482Z,1011.67
2016-08-18T10:54:47.506Z,1011.65
2016-08-18T10:55:47.541Z,1011.71
2016-08-18T10:56:47.553Z,1011.7
2016-08-18T10:57:47.583Z,1011.73
2016-08-18T10:58:47.611Z,1011.62
2016-08-18T10:59:47.633Z,1011.63
2016-08-18T11:00:47.763Z,1011.69
2016-08-18T11:01:47.695Z,1011.65
2016-08-18T11:02:47.713Z,1011.74
2016-08-18T11:03:47.741Z,1011.7
2016-08-18T11:04:47.762Z,1011.7
2016-08-18T11:05:47.788Z,1011.66
2016-08-18T11:06:47.823Z,1011.65
2016-08-18T11:07:47.845Z,1011.66
2016-08-18T11:08:47.875Z,1011.63
2016-08-18T11:09:47.903Z,1011.63
2016-08-18T11:10:47.920Z,1011.6
2016-08-18T11:11:47.955Z,1011.65
2016-08-18T11:12:47.973Z,1011.62
2016-08-18T11:13:48.005Z,1011.62
2016-08-18T11:14:48.025Z,1011.59
2016-08-18T11:15:48.055Z,1011.64
2016-08-18T11:16:48.083Z,1011.64
2016-08-18T11:17:48.104Z,1011.66
2016-08-18T11:18:48.141Z,1011.64
2016-08-18T11:19:48.160Z,1011.66
2016-08-18T11:20:48.184Z,1011.65
2016-08-18T11:21:48.211Z,1011.64
2016-08-18T11:22:48.239Z,1011.63
2016-08-18T11:23:48.263Z,1011.65
2016-08-18T11:24:48.293Z,1011.61
2016-08-18T11:25:48.319Z,1011.65
2016-08-18T11:26:48.344Z,1011.66
2016-08-18T11:27:48.377Z,1011.67
2016-08-18T11:28:48.404Z,1011.65
2016-08-18T11:29:48.440Z,1011.64
2016-08-18T11:30:48.452Z,1011.65
2016-08-18T11:31:48.484Z,1011.65
2016-08-18T11:32:48.506Z,1011.65
2016-08-18T11:33:48.534Z,1011.64
2016-08-18T11:34:48.571Z,1011.62
2016-08-18T11:35:48.594Z,1011.65
2016-08-18T11:36:48.611Z,1011.62
2016-08-18T11:37:48.647Z,1011.62
2016-08-18T11:38:48.664Z,1011.61
2016-08-18T11:39:48.692Z,1011.63
2016-08-18T11:40:48.723Z,1011.65
2016-08-18T11:41:48.769Z,1011.63
2016-08-18T11:42:48.775Z,1011.6
2016-08-18T11:43:48.797Z,1011.59
2016-08-18T11:44:48.825Z,1011.54
2016-08-18T11:45:48.853Z,1011.53
2016-08-18T11:46:48.882Z,1011.53
2016-08-18T11:47:48.905Z,1011.53
2016-08-18T11:48:48.936Z,1011.49
2016-08-18T11:49:48.960Z,1011.5
2016-08-18T11:50:48.987Z,1011.44
2016-08-18T11:51:49.021Z,1011.48
2016-08-18T11:52:49.037Z,1011.47
2016-08-18T11:53:49.072Z,1011.48
2016-08-18T11:54:49.094Z,1011.45
2016-08-18T11:55:49.123Z,1011.43
2016-08-18T11:56:49.152Z,1011.42
2016-08-18T12:11:56.199Z,1011.32
2016-08-18T12:12:56.229Z,1011.35
2016-08-18T12:13:56.255Z,1011.34
2016-08-18T12:14:56.886Z,1011.36
2016-08-18T12:15:56.904Z,1011.38
2016-08-18T12:16:56.990Z,1011.4
2016-08-18T12:17:56.962Z,1011.34
2016-08-18T12:18:56.994Z,1011.38
2016-08-18T12:19:57.022Z,1011.38
2016-08-18T12:20:57.046Z,1011.39
2016-08-18T12:21:57.069Z,1011.37
2016-08-18T12:22:57.095Z,1011.36